sensor_id;sensor_type;location;lat;lon;timestamp;P1;durP1;ratioP1;P2;durP2;ratioP2
36593;SDS011;22603;47.900;8.146;2023-05-14T00:02:26;10.50;;;4.23;;
36593;SDS011;22603;47.900;8.146;2023-05-14T00:05:13;12.90;;;3.77;;
36593;SDS011;22603;47.900;8.146;2023-05-14T00:08:01;10.97;;;4.10;;
36593;SDS011;22603;47.900;8.146;2023-05-14T00:10:49;7.83;;;3.53;;
36593;SDS011;22603;47.900;8.146;2023-05-14T00:13:36;9.43;;;3.57;;
36593;SDS011;22603;47.900;8.146;2023-05-14T00:16:23;10.47;;;4.00;;
36593;SDS011;22603;47.900;8.146;2023-05-14T00:19:10;8.87;;;3.37;;
36593;SDS011;22603;47.900;8.146;2023-05-14T00:21:58;10.63;;;3.47;;
36593;SDS011;22603;47.900;8.146;2023-05-14T00:24:44;8.73;;;3.50;;
36593;SDS011;22603;47.900;8.146;2023-05-14T00:27:32;10.50;;;4.00;;
36593;SDS011;22603;47.900;8.146;2023-05-14T00:30:19;12.53;;;4.07;;
36593;SDS011;22603;47.900;8.146;2023-05-14T00:33:07;10.93;;;3.63;;
36593;SDS011;22603;47.900;8.146;2023-05-14T00:35:54;7.77;;;3.60;;
36593;SDS011;22603;47.900;8.146;2023-05-14T00:38:41;8.70;;;3.63;;
36593;SDS011;22603;47.900;8.146;2023-05-14T00:41:27;12.27;;;3.77;;
36593;SDS011;22603;47.900;8.146;2023-05-14T00:44:16;9.37;;;3.70;;
36593;SDS011;22603;47.900;8.146;2023-05-14T00:47:03;14.87;;;4.07;;
36593;SDS011;22603;47.900;8.146;2023-05-14T00:49:51;9.23;;;3.40;;
36593;SDS011;22603;47.900;8.146;2023-05-14T00:52:38;8.43;;;3.33;;
36593;SDS011;22603;47.900;8.146;2023-05-14T00:55:26;12.03;;;3.83;;
36593;SDS011;22603;47.900;8.146;2023-05-14T00:58:14;8.97;;;3.30;;
36593;SDS011;22603;47.900;8.146;2023-05-14T01:01:04;10.30;;;4.23;;
36593;SDS011;22603;47.900;8.146;2023-05-14T01:03:52;7.87;;;3.40;;
36593;SDS011;22603;47.900;8.146;2023-05-14T01:06:44;7.77;;;3.50;;
36593;SDS011;22603;47.900;8.146;2023-05-14T01:09:41;11.47;;;3.93;;
36593;SDS011;22603;47.900;8.146;2023-05-14T01:12:36;8.40;;;3.60;;
36593;SDS011;22603;47.900;8.146;2023-05-14T01:15:29;9.27;;;3.90;;
36593;SDS011;22603;47.900;8.146;2023-05-14T01:18:19;8.50;;;3.43;;
36593;SDS011;22603;47.900;8.146;2023-05-14T01:21:17;8.43;;;3.60;;
36593;SDS011;22603;47.900;8.146;2023-05-14T01:24:09;8.83;;;3.07;;
36593;SDS011;22603;47.900;8.146;2023-05-14T01:26:57;10.23;;;3.97;;
36593;SDS011;22603;47.900;8.146;2023-05-14T01:29:52;9.43;;;4.10;;
36593;SDS011;22603;47.900;8.146;2023-05-14T01:32:46;8.27;;;3.27;;
36593;SDS011;22603;47.900;8.146;2023-05-14T01:35:36;7.93;;;3.40;;
36593;SDS011;22603;47.900;8.146;2023-05-14T01:38:25;8.73;;;3.40;;
36593;SDS011;22603;47.900;8.146;2023-05-14T01:41:14;7.60;;;3.00;;
36593;SDS011;22603;47.900;8.146;2023-05-14T01:44:03;8.67;;;3.87;;
36593;SDS011;22603;47.900;8.146;2023-05-14T01:46:50;9.20;;;3.77;;
36593;SDS011;22603;47.900;8.146;2023-05-14T01:49:37;10.30;;;4.23;;
36593;SDS011;22603;47.900;8.146;2023-05-14T01:52:24;8.67;;;3.87;;
36593;SDS011;22603;47.900;8.146;2023-05-14T01:55:12;10.07;;;3.63;;
36593;SDS011;22603;47.900;8.146;2023-05-14T01:57:59;8.90;;;3.50;;
36593;SDS011;22603;47.900;8.146;2023-05-14T02:00:46;10.13;;;3.80;;
36593;SDS011;22603;47.900;8.146;2023-05-14T02:03:33;8.07;;;3.47;;
36593;SDS011;22603;47.900;8.146;2023-05-14T02:06:20;9.83;;;3.70;;
36593;SDS011;22603;47.900;8.146;2023-05-14T02:09:07;8.70;;;3.37;;
36593;SDS011;22603;47.900;8.146;2023-05-14T02:11:55;9.67;;;3.77;;
36593;SDS011;22603;47.900;8.146;2023-05-14T02:14:42;11.07;;;3.80;;
36593;SDS011;22603;47.900;8.146;2023-05-14T02:17:28;9.27;;;3.60;;
36593;SDS011;22603;47.900;8.146;2023-05-14T02:20:15;7.77;;;3.30;;
36593;SDS011;22603;47.900;8.146;2023-05-14T02:23:03;8.33;;;3.60;;
36593;SDS011;22603;47.900;8.146;2023-05-14T02:25:49;8.83;;;4.10;;
36593;SDS011;22603;47.900;8.146;2023-05-14T02:28:37;9.70;;;3.40;;
36593;SDS011;22603;47.900;8.146;2023-05-14T02:31:24;8.03;;;3.47;;
36593;SDS011;22603;47.900;8.146;2023-05-14T02:34:11;10.53;;;4.13;;
36593;SDS011;22603;47.900;8.146;2023-05-14T02:36:59;10.37;;;3.97;;
36593;SDS011;22603;47.900;8.146;2023-05-14T02:39:45;8.20;;;3.53;;
36593;SDS011;22603;47.900;8.146;2023-05-14T02:42:33;10.67;;;4.23;;
36593;SDS011;22603;47.900;8.146;2023-05-14T02:45:21;10.23;;;4.23;;
36593;SDS011;22603;47.900;8.146;2023-05-14T02:48:08;10.90;;;3.80;;
36593;SDS011;22603;47.900;8.146;2023-05-14T02:50:55;8.90;;;3.60;;
36593;SDS011;22603;47.900;8.146;2023-05-14T02:53:42;10.80;;;4.30;;
36593;SDS011;22603;47.900;8.146;2023-05-14T02:56:29;8.83;;;3.80;;
36593;SDS011;22603;47.900;8.146;2023-05-14T02:59:15;8.30;;;3.47;;
36593;SDS011;22603;47.900;8.146;2023-05-14T03:02:04;8.20;;;3.77;;
36593;SDS011;22603;47.900;8.146;2023-05-14T03:04:52;10.67;;;4.50;;
36593;SDS011;22603;47.900;8.146;2023-05-14T03:07:38;10.57;;;3.87;;
36593;SDS011;22603;47.900;8.146;2023-05-14T03:10:25;9.37;;;3.73;;
36593;SDS011;22603;47.900;8.146;2023-05-14T03:13:12;10.70;;;4.13;;
36593;SDS011;22603;47.900;8.146;2023-05-14T03:16:01;9.93;;;4.10;;
36593;SDS011;22603;47.900;8.146;2023-05-14T03:18:50;10.40;;;4.50;;
36593;SDS011;22603;47.900;8.146;2023-05-14T03:21:36;11.23;;;4.57;;
36593;SDS011;22603;47.900;8.146;2023-05-14T03:24:24;8.10;;;3.87;;
36593;SDS011;22603;47.900;8.146;2023-05-14T03:27:10;7.83;;;3.40;;
36593;SDS011;22603;47.900;8.146;2023-05-14T03:29:57;9.83;;;4.17;;
36593;SDS011;22603;47.900;8.146;2023-05-14T03:32:44;11.73;;;4.03;;
36593;SDS011;22603;47.900;8.146;2023-05-14T03:35:32;7.43;;;3.30;;
36593;SDS011;22603;47.900;8.146;2023-05-14T03:38:19;9.83;;;3.80;;
36593;SDS011;22603;47.900;8.146;2023-05-14T03:41:06;9.60;;;3.97;;
36593;SDS011;22603;47.900;8.146;2023-05-14T03:43:53;9.03;;;3.93;;
36593;SDS011;22603;47.900;8.146;2023-05-14T03:46:40;12.40;;;4.80;;
36593;SDS011;22603;47.900;8.146;2023-05-14T03:49:27;11.43;;;4.93;;
36593;SDS011;22603;47.900;8.146;2023-05-14T03:52:15;12.40;;;5.40;;
36593;SDS011;22603;47.900;8.146;2023-05-14T03:55:01;11.83;;;4.80;;
36593;SDS011;22603;47.900;8.146;2023-05-14T03:57:48;10.73;;;4.53;;
36593;SDS011;22603;47.900;8.146;2023-05-14T04:00:36;9.87;;;4.13;;
36593;SDS011;22603;47.900;8.146;2023-05-14T04:03:22;9.33;;;3.73;;
36593;SDS011;22603;47.900;8.146;2023-05-14T04:06:09;9.20;;;3.83;;
36593;SDS011;22603;47.900;8.146;2023-05-14T04:08:58;9.17;;;3.77;;
36593;SDS011;22603;47.900;8.146;2023-05-14T04:11:45;8.93;;;3.40;;
36593;SDS011;22603;47.900;8.146;2023-05-14T04:14:32;11.33;;;4.27;;
36593;SDS011;22603;47.900;8.146;2023-05-14T04:17:18;8.97;;;3.60;;
36593;SDS011;22603;47.900;8.146;2023-05-14T04:20:06;8.13;;;3.33;;
36593;SDS011;22603;47.900;8.146;2023-05-14T04:22:54;9.70;;;3.93;;
36593;SDS011;22603;47.900;8.146;2023-05-14T04:25:42;9.30;;;3.90;;
36593;SDS011;22603;47.900;8.146;2023-05-14T04:28:28;10.43;;;4.47;;
36593;SDS011;22603;47.900;8.146;2023-05-14T04:31:15;9.93;;;3.97;;
36593;SDS011;22603;47.900;8.146;2023-05-14T04:34:02;8.90;;;3.53;;
36593;SDS011;22603;47.900;8.146;2023-05-14T04:36:49;9.47;;;3.90;;
36593;SDS011;22603;47.900;8.146;2023-05-14T04:39:37;9.33;;;3.93;;
36593;SDS011;22603;47.900;8.146;2023-05-14T04:42:25;9.73;;;4.00;;
36593;SDS011;22603;47.900;8.146;2023-05-14T04:45:12;9.73;;;4.47;;
36593;SDS011;22603;47.900;8.146;2023-05-14T04:47:59;13.00;;;5.17;;
36593;SDS011;22603;47.900;8.146;2023-05-14T04:50:46;10.57;;;4.40;;
36593;SDS011;22603;47.900;8.146;2023-05-14T04:53:32;11.10;;;4.67;;
36593;SDS011;22603;47.900;8.146;2023-05-14T04:56:19;13.13;;;5.30;;
36593;SDS011;22603;47.900;8.146;2023-05-14T04:59:08;10.83;;;4.37;;
36593;SDS011;22603;47.900;8.146;2023-05-14T05:01:55;10.27;;;5.07;;
36593;SDS011;22603;47.900;8.146;2023-05-14T05:04:42;11.50;;;4.57;;
36593;SDS011;22603;47.900;8.146;2023-05-14T05:07:28;10.30;;;4.13;;
36593;SDS011;22603;47.900;8.146;2023-05-14T05:10:15;8.37;;;4.13;;
36593;SDS011;22603;47.900;8.146;2023-05-14T05:13:02;8.83;;;4.13;;
36593;SDS011;22603;47.900;8.146;2023-05-14T05:15:50;10.13;;;4.17;;
36593;SDS011;22603;47.900;8.146;2023-05-14T05:18:37;14.57;;;4.53;;
36593;SDS011;22603;47.900;8.146;2023-05-14T05:21:24;11.03;;;5.27;;
36593;SDS011;22603;47.900;8.146;2023-05-14T05:24:11;10.87;;;4.67;;
36593;SDS011;22603;47.900;8.146;2023-05-14T05:26:58;11.07;;;4.50;;
36593;SDS011;22603;47.900;8.146;2023-05-14T05:29:45;9.83;;;4.20;;
36593;SDS011;22603;47.900;8.146;2023-05-14T05:32:34;13.80;;;4.60;;
36593;SDS011;22603;47.900;8.146;2023-05-14T05:35:21;9.27;;;4.53;;
36593;SDS011;22603;47.900;8.146;2023-05-14T05:38:08;12.57;;;5.63;;
36593;SDS011;22603;47.900;8.146;2023-05-14T05:40:56;12.60;;;4.97;;
36593;SDS011;22603;47.900;8.146;2023-05-14T05:43:43;12.77;;;5.40;;
36593;SDS011;22603;47.900;8.146;2023-05-14T05:46:30;12.93;;;5.73;;
36593;SDS011;22603;47.900;8.146;2023-05-14T05:49:18;10.50;;;4.47;;
36593;SDS011;22603;47.900;8.146;2023-05-14T05:52:05;14.30;;;6.47;;
36593;SDS011;22603;47.900;8.146;2023-05-14T05:54:52;13.40;;;5.77;;
36593;SDS011;22603;47.900;8.146;2023-05-14T05:57:40;13.13;;;6.03;;
36593;SDS011;22603;47.900;8.146;2023-05-14T06:00:27;13.37;;;5.60;;
36593;SDS011;22603;47.900;8.146;2023-05-14T06:03:15;11.83;;;5.27;;
36593;SDS011;22603;47.900;8.146;2023-05-14T06:06:03;12.00;;;5.20;;
36593;SDS011;22603;47.900;8.146;2023-05-14T06:08:50;13.27;;;5.70;;
36593;SDS011;22603;47.900;8.146;2023-05-14T06:11:37;11.87;;;5.40;;
36593;SDS011;22603;47.900;8.146;2023-05-14T06:14:24;11.53;;;5.03;;
36593;SDS011;22603;47.900;8.146;2023-05-14T06:17:10;10.70;;;5.17;;
36593;SDS011;22603;47.900;8.146;2023-05-14T06:19:57;11.33;;;5.00;;
36593;SDS011;22603;47.900;8.146;2023-05-14T06:22:45;12.17;;;5.17;;
36593;SDS011;22603;47.900;8.146;2023-05-14T06:25:32;12.67;;;4.73;;
36593;SDS011;22603;47.900;8.146;2023-05-14T06:28:19;9.37;;;4.07;;
36593;SDS011;22603;47.900;8.146;2023-05-14T06:31:06;9.50;;;3.97;;
36593;SDS011;22603;47.900;8.146;2023-05-14T06:33:53;9.77;;;4.43;;
36593;SDS011;22603;47.900;8.146;2023-05-14T06:36:40;10.97;;;4.67;;
36593;SDS011;22603;47.900;8.146;2023-05-14T06:39:28;9.40;;;4.67;;
36593;SDS011;22603;47.900;8.146;2023-05-14T06:42:15;10.73;;;4.60;;
36593;SDS011;22603;47.900;8.146;2023-05-14T06:45:02;10.00;;;4.40;;
36593;SDS011;22603;47.900;8.146;2023-05-14T06:47:49;10.60;;;4.50;;
36593;SDS011;22603;47.900;8.146;2023-05-14T06:50:36;9.13;;;4.20;;
36593;SDS011;22603;47.900;8.146;2023-05-14T06:53:23;9.17;;;3.90;;
36593;SDS011;22603;47.900;8.146;2023-05-14T06:56:11;8.93;;;3.77;;
36593;SDS011;22603;47.900;8.146;2023-05-14T06:58:58;9.20;;;3.43;;
36593;SDS011;22603;47.900;8.146;2023-05-14T07:01:46;8.57;;;3.47;;
36593;SDS011;22603;47.900;8.146;2023-05-14T07:04:33;7.97;;;3.80;;
36593;SDS011;22603;47.900;8.146;2023-05-14T07:07:20;8.33;;;3.60;;
36593;SDS011;22603;47.900;8.146;2023-05-14T07:10:07;8.83;;;3.60;;
36593;SDS011;22603;47.900;8.146;2023-05-14T07:12:55;8.47;;;3.77;;
36593;SDS011;22603;47.900;8.146;2023-05-14T07:15:43;6.37;;;2.70;;
36593;SDS011;22603;47.900;8.146;2023-05-14T07:18:30;8.97;;;3.50;;
36593;SDS011;22603;47.900;8.146;2023-05-14T07:21:17;9.03;;;3.80;;
36593;SDS011;22603;47.900;8.146;2023-05-14T07:24:04;9.17;;;3.90;;
36593;SDS011;22603;47.900;8.146;2023-05-14T07:26:52;8.50;;;3.47;;
36593;SDS011;22603;47.900;8.146;2023-05-14T07:29:43;6.73;;;2.97;;
36593;SDS011;22603;47.900;8.146;2023-05-14T07:32:29;8.77;;;3.47;;
36593;SDS011;22603;47.900;8.146;2023-05-14T07:35:16;10.40;;;3.40;;
36593;SDS011;22603;47.900;8.146;2023-05-14T07:38:03;8.00;;;3.17;;
36593;SDS011;22603;47.900;8.146;2023-05-14T07:40:50;8.53;;;3.27;;
36593;SDS011;22603;47.900;8.146;2023-05-14T07:43:37;8.20;;;3.33;;
36593;SDS011;22603;47.900;8.146;2023-05-14T07:46:26;6.67;;;2.93;;
36593;SDS011;22603;47.900;8.146;2023-05-14T07:49:13;9.57;;;2.93;;
36593;SDS011;22603;47.900;8.146;2023-05-14T07:52:00;6.32;;;2.70;;
36593;SDS011;22603;47.900;8.146;2023-05-14T07:54:47;6.78;;;2.55;;
36593;SDS011;22603;47.900;8.146;2023-05-14T07:57:35;5.03;;;2.25;;
36593;SDS011;22603;47.900;8.146;2023-05-14T08:00:22;6.53;;;2.42;;
36593;SDS011;22603;47.900;8.146;2023-05-14T08:03:11;8.68;;;2.47;;
36593;SDS011;22603;47.900;8.146;2023-05-14T08:05:59;7.90;;;3.10;;
36593;SDS011;22603;47.900;8.146;2023-05-14T08:08:46;9.05;;;3.50;;
36593;SDS011;22603;47.900;8.146;2023-05-14T08:11:33;7.43;;;3.00;;
36593;SDS011;22603;47.900;8.146;2023-05-14T08:14:20;6.45;;;2.75;;
36593;SDS011;22603;47.900;8.146;2023-05-14T08:17:07;7.18;;;3.33;;
36593;SDS011;22603;47.900;8.146;2023-05-14T08:19:55;7.47;;;2.90;;
36593;SDS011;22603;47.900;8.146;2023-05-14T08:22:42;8.30;;;3.33;;
36593;SDS011;22603;47.900;8.146;2023-05-14T08:25:29;8.50;;;3.10;;
36593;SDS011;22603;47.900;8.146;2023-05-14T08:28:17;6.78;;;2.90;;
36593;SDS011;22603;47.900;8.146;2023-05-14T08:31:04;8.48;;;3.17;;
36593;SDS011;22603;47.900;8.146;2023-05-14T08:33:51;8.65;;;3.55;;
36593;SDS011;22603;47.900;8.146;2023-05-14T08:36:39;14.23;;;3.20;;
36593;SDS011;22603;47.900;8.146;2023-05-14T08:39:26;7.68;;;3.15;;
36593;SDS011;22603;47.900;8.146;2023-05-14T08:42:13;8.10;;;3.08;;
36593;SDS011;22603;47.900;8.146;2023-05-14T08:45:05;7.28;;;2.88;;
36593;SDS011;22603;47.900;8.146;2023-05-14T08:47:58;6.50;;;2.70;;
36593;SDS011;22603;47.900;8.146;2023-05-14T08:50:46;6.28;;;2.90;;
36593;SDS011;22603;47.900;8.146;2023-05-14T08:53:35;7.30;;;2.90;;
36593;SDS011;22603;47.900;8.146;2023-05-14T08:56:24;6.82;;;2.47;;
36593;SDS011;22603;47.900;8.146;2023-05-14T08:59:12;7.03;;;2.80;;
36593;SDS011;22603;47.900;8.146;2023-05-14T09:02:00;8.95;;;3.10;;
36593;SDS011;22603;47.900;8.146;2023-05-14T09:04:49;6.07;;;2.45;;
36593;SDS011;22603;47.900;8.146;2023-05-14T09:07:39;6.53;;;2.72;;
36593;SDS011;22603;47.900;8.146;2023-05-14T09:10:28;5.90;;;2.58;;
36593;SDS011;22603;47.900;8.146;2023-05-14T09:13:15;4.63;;;2.15;;
36593;SDS011;22603;47.900;8.146;2023-05-14T09:16:02;6.80;;;2.60;;
36593;SDS011;22603;47.900;8.146;2023-05-14T09:18:49;8.20;;;2.90;;
36593;SDS011;22603;47.900;8.146;2023-05-14T09:21:37;7.63;;;2.30;;
36593;SDS011;22603;47.900;8.146;2023-05-14T09:24:37;5.53;;;2.47;;
36593;SDS011;22603;47.900;8.146;2023-05-14T09:28:05;6.00;;;2.40;;
36593;SDS011;22603;47.900;8.146;2023-05-14T09:30:53;8.13;;;2.85;;
36593;SDS011;22603;47.900;8.146;2023-05-14T09:33:40;5.75;;;2.38;;
36593;SDS011;22603;47.900;8.146;2023-05-14T09:36:27;5.70;;;2.45;;
36593;SDS011;22603;47.900;8.146;2023-05-14T09:39:14;5.70;;;2.30;;
36593;SDS011;22603;47.900;8.146;2023-05-14T09:42:03;6.15;;;2.60;;
36593;SDS011;22603;47.900;8.146;2023-05-14T09:44:53;5.13;;;2.30;;
36593;SDS011;22603;47.900;8.146;2023-05-14T09:47:41;7.85;;;3.00;;
36593;SDS011;22603;47.900;8.146;2023-05-14T09:50:29;6.70;;;2.60;;
36593;SDS011;22603;47.900;8.146;2023-05-14T09:53:16;7.45;;;2.58;;
36593;SDS011;22603;47.900;8.146;2023-05-14T09:56:03;6.30;;;2.75;;
36593;SDS011;22603;47.900;8.146;2023-05-14T09:58:51;6.30;;;2.78;;
36593;SDS011;22603;47.900;8.146;2023-05-14T10:01:40;9.75;;;3.10;;
36593;SDS011;22603;47.900;8.146;2023-05-14T10:04:29;7.82;;;3.10;;
36593;SDS011;22603;47.900;8.146;2023-05-14T10:07:17;7.28;;;2.80;;
36593;SDS011;22603;47.900;8.146;2023-05-14T10:10:07;6.05;;;2.38;;
36593;SDS011;22603;47.900;8.146;2023-05-14T10:13:00;5.53;;;2.40;;
36593;SDS011;22603;47.900;8.146;2023-05-14T10:15:51;5.22;;;2.65;;
36593;SDS011;22603;47.900;8.146;2023-05-14T10:18:45;6.07;;;2.50;;
36593;SDS011;22603;47.900;8.146;2023-05-14T10:21:32;6.22;;;2.38;;
36593;SDS011;22603;47.900;8.146;2023-05-14T10:24:21;6.72;;;2.55;;
36593;SDS011;22603;47.900;8.146;2023-05-14T10:27:09;8.80;;;3.00;;
36593;SDS011;22603;47.900;8.146;2023-05-14T10:29:57;5.72;;;2.20;;
36593;SDS011;22603;47.900;8.146;2023-05-14T10:32:44;5.60;;;2.50;;
36593;SDS011;22603;47.900;8.146;2023-05-14T10:35:33;5.95;;;2.05;;
36593;SDS011;22603;47.900;8.146;2023-05-14T10:38:37;4.65;;;2.05;;
36593;SDS011;22603;47.900;8.146;2023-05-14T10:41:24;6.10;;;2.40;;
36593;SDS011;22603;47.900;8.146;2023-05-14T10:44:11;4.75;;;2.10;;
36593;SDS011;22603;47.900;8.146;2023-05-14T10:46:58;5.40;;;2.35;;
36593;SDS011;22603;47.900;8.146;2023-05-14T10:49:47;4.43;;;2.15;;
36593;SDS011;22603;47.900;8.146;2023-05-14T10:52:36;5.53;;;2.22;;
36593;SDS011;22603;47.900;8.146;2023-05-14T10:55:23;18.27;;;2.40;;
36593;SDS011;22603;47.900;8.146;2023-05-14T10:58:11;4.95;;;2.15;;
36593;SDS011;22603;47.900;8.146;2023-05-14T11:00:59;4.70;;;1.92;;
36593;SDS011;22603;47.900;8.146;2023-05-14T11:03:47;5.32;;;1.98;;
36593;SDS011;22603;47.900;8.146;2023-05-14T11:06:40;3.90;;;1.92;;
36593;SDS011;22603;47.900;8.146;2023-05-14T11:09:29;5.97;;;2.10;;
36593;SDS011;22603;47.900;8.146;2023-05-14T11:12:16;4.18;;;2.00;;
36593;SDS011;22603;47.900;8.146;2023-05-14T11:15:05;5.03;;;2.05;;
36593;SDS011;22603;47.900;8.146;2023-05-14T11:17:54;4.47;;;2.03;;
36593;SDS011;22603;47.900;8.146;2023-05-14T11:20:41;5.80;;;2.10;;
36593;SDS011;22603;47.900;8.146;2023-05-14T11:23:28;5.70;;;2.30;;
36593;SDS011;22603;47.900;8.146;2023-05-14T11:26:17;5.32;;;2.28;;
36593;SDS011;22603;47.900;8.146;2023-05-14T11:29:05;6.03;;;2.13;;
36593;SDS011;22603;47.900;8.146;2023-05-14T11:31:52;4.38;;;1.98;;
36593;SDS011;22603;47.900;8.146;2023-05-14T11:34:40;5.05;;;2.20;;
36593;SDS011;22603;47.900;8.146;2023-05-14T11:37:29;4.75;;;2.00;;
36593;SDS011;22603;47.900;8.146;2023-05-14T11:40:16;6.47;;;2.47;;
36593;SDS011;22603;47.900;8.146;2023-05-14T11:43:05;7.05;;;2.17;;
36593;SDS011;22603;47.900;8.146;2023-05-14T11:45:52;5.28;;;2.28;;
36593;SDS011;22603;47.900;8.146;2023-05-14T11:48:40;4.82;;;2.10;;
36593;SDS011;22603;47.900;8.146;2023-05-14T11:51:28;5.85;;;2.63;;
36593;SDS011;22603;47.900;8.146;2023-05-14T11:54:15;7.47;;;2.65;;
36593;SDS011;22603;47.900;8.146;2023-05-14T11:57:06;7.57;;;2.88;;
36593;SDS011;22603;47.900;8.146;2023-05-14T11:59:56;6.23;;;2.53;;
36593;SDS011;22603;47.900;8.146;2023-05-14T12:02:43;6.43;;;2.35;;
36593;SDS011;22603;47.900;8.146;2023-05-14T12:05:30;8.30;;;2.70;;
36593;SDS011;22603;47.900;8.146;2023-05-14T12:08:20;6.07;;;2.50;;
36593;SDS011;22603;47.900;8.146;2023-05-14T12:11:07;8.13;;;2.77;;
36593;SDS011;22603;47.900;8.146;2023-05-14T12:13:54;13.30;;;3.00;;
36593;SDS011;22603;47.900;8.146;2023-05-14T12:16:43;5.97;;;2.50;;
36593;SDS011;22603;47.900;8.146;2023-05-14T12:19:31;8.13;;;2.90;;
36593;SDS011;22603;47.900;8.146;2023-05-14T12:22:19;8.50;;;2.80;;
36593;SDS011;22603;47.900;8.146;2023-05-14T12:25:09;7.57;;;2.40;;
36593;SDS011;22603;47.900;8.146;2023-05-14T12:27:58;7.47;;;2.90;;
36593;SDS011;22603;47.900;8.146;2023-05-14T12:30:45;5.17;;;2.40;;
36593;SDS011;22603;47.900;8.146;2023-05-14T12:33:34;5.30;;;2.23;;
36593;SDS011;22603;47.900;8.146;2023-05-14T12:36:21;6.22;;;2.58;;
36593;SDS011;22603;47.900;8.146;2023-05-14T12:39:09;6.05;;;2.33;;
36593;SDS011;22603;47.900;8.146;2023-05-14T12:41:56;5.05;;;2.03;;
36593;SDS011;22603;47.900;8.146;2023-05-14T12:44:43;6.20;;;1.50;;
36593;SDS011;22603;47.900;8.146;2023-05-14T12:47:33;4.40;;;1.75;;
36593;SDS011;22603;47.900;8.146;2023-05-14T12:50:23;3.45;;;1.65;;
36593;SDS011;22603;47.900;8.146;2023-05-14T12:53:10;5.38;;;1.90;;
36593;SDS011;22603;47.900;8.146;2023-05-14T12:56:00;5.03;;;1.70;;
36593;SDS011;22603;47.900;8.146;2023-05-14T12:58:47;4.80;;;1.55;;
36593;SDS011;22603;47.900;8.146;2023-05-14T13:01:34;3.05;;;1.30;;
36593;SDS011;22603;47.900;8.146;2023-05-14T13:04:21;2.22;;;1.30;;
36593;SDS011;22603;47.900;8.146;2023-05-14T13:07:10;3.63;;;1.25;;
36593;SDS011;22603;47.900;8.146;2023-05-14T13:09:57;2.00;;;1.10;;
36593;SDS011;22603;47.900;8.146;2023-05-14T13:12:44;3.25;;;1.30;;
36593;SDS011;22603;47.900;8.146;2023-05-14T13:15:30;2.83;;;1.20;;
36593;SDS011;22603;47.900;8.146;2023-05-14T13:18:17;2.80;;;1.40;;
36593;SDS011;22603;47.900;8.146;2023-05-14T13:21:04;6.07;;;1.45;;
36593;SDS011;22603;47.900;8.146;2023-05-14T13:23:52;2.58;;;1.33;;
36593;SDS011;22603;47.900;8.146;2023-05-14T13:26:39;2.28;;;1.30;;
36593;SDS011;22603;47.900;8.146;2023-05-14T13:29:28;8.70;;;3.55;;
36593;SDS011;22603;47.900;8.146;2023-05-14T13:32:16;4.22;;;2.03;;
36593;SDS011;22603;47.900;8.146;2023-05-14T13:35:03;6.38;;;2.30;;
36593;SDS011;22603;47.900;8.146;2023-05-14T13:37:51;4.13;;;1.45;;
36593;SDS011;22603;47.900;8.146;2023-05-14T13:40:40;2.28;;;1.02;;
36593;SDS011;22603;47.900;8.146;2023-05-14T13:43:28;2.47;;;1.15;;
36593;SDS011;22603;47.900;8.146;2023-05-14T13:46:15;3.78;;;1.40;;
36593;SDS011;22603;47.900;8.146;2023-05-14T13:49:02;3.80;;;1.30;;
36593;SDS011;22603;47.900;8.146;2023-05-14T13:51:49;5.87;;;1.50;;
36593;SDS011;22603;47.900;8.146;2023-05-14T13:54:36;6.17;;;1.80;;
36593;SDS011;22603;47.900;8.146;2023-05-14T13:57:24;3.97;;;1.70;;
36593;SDS011;22603;47.900;8.146;2023-05-14T14:00:11;3.07;;;1.50;;
36593;SDS011;22603;47.900;8.146;2023-05-14T14:02:59;4.43;;;1.80;;
36593;SDS011;22603;47.900;8.146;2023-05-14T14:05:46;2.80;;;1.37;;
36593;SDS011;22603;47.900;8.146;2023-05-14T14:08:33;2.67;;;1.30;;
36593;SDS011;22603;47.900;8.146;2023-05-14T14:11:20;3.93;;;1.87;;
36593;SDS011;22603;47.900;8.146;2023-05-14T14:14:09;5.40;;;2.07;;
36593;SDS011;22603;47.900;8.146;2023-05-14T14:16:55;4.27;;;1.90;;
36593;SDS011;22603;47.900;8.146;2023-05-14T14:19:42;5.75;;;2.03;;
36593;SDS011;22603;47.900;8.146;2023-05-14T14:22:29;2.92;;;1.25;;
36593;SDS011;22603;47.900;8.146;2023-05-14T14:25:16;3.08;;;1.48;;
36593;SDS011;22603;47.900;8.146;2023-05-14T14:28:03;4.65;;;1.65;;
36593;SDS011;22603;47.900;8.146;2023-05-14T14:30:51;3.72;;;1.63;;
36593;SDS011;22603;47.900;8.146;2023-05-14T14:33:38;5.05;;;1.63;;
36593;SDS011;22603;47.900;8.146;2023-05-14T14:36:24;4.70;;;1.70;;
36593;SDS011;22603;47.900;8.146;2023-05-14T14:39:13;5.03;;;2.03;;
36593;SDS011;22603;47.900;8.146;2023-05-14T14:42:00;3.80;;;1.65;;
36593;SDS011;22603;47.900;8.146;2023-05-14T14:44:47;3.65;;;1.50;;
36593;SDS011;22603;47.900;8.146;2023-05-14T14:47:36;2.47;;;1.38;;
36593;SDS011;22603;47.900;8.146;2023-05-14T14:50:23;8.23;;;1.63;;
36593;SDS011;22603;47.900;8.146;2023-05-14T14:53:10;2.38;;;1.48;;
36593;SDS011;22603;47.900;8.146;2023-05-14T14:55:57;3.22;;;1.40;;
36593;SDS011;22603;47.900;8.146;2023-05-14T14:58:44;3.05;;;1.23;;
36593;SDS011;22603;47.900;8.146;2023-05-14T15:01:30;4.57;;;1.80;;
36593;SDS011;22603;47.900;8.146;2023-05-14T15:04:19;2.78;;;1.40;;
36593;SDS011;22603;47.900;8.146;2023-05-14T15:07:08;2.95;;;1.30;;
36593;SDS011;22603;47.900;8.146;2023-05-14T15:09:55;5.45;;;1.42;;
36593;SDS011;22603;47.900;8.146;2023-05-14T15:12:41;2.22;;;1.20;;
36593;SDS011;22603;47.900;8.146;2023-05-14T15:15:29;2.83;;;1.40;;
36593;SDS011;22603;47.900;8.146;2023-05-14T15:18:16;2.85;;;1.38;;
36593;SDS011;22603;47.900;8.146;2023-05-14T15:21:05;2.72;;;1.30;;
36593;SDS011;22603;47.900;8.146;2023-05-14T15:23:52;3.40;;;1.30;;
36593;SDS011;22603;47.900;8.146;2023-05-14T15:26:39;2.55;;;1.05;;
36593;SDS011;22603;47.900;8.146;2023-05-14T15:29:29;2.60;;;1.30;;
36593;SDS011;22603;47.900;8.146;2023-05-14T15:32:17;2.92;;;1.30;;
36593;SDS011;22603;47.900;8.146;2023-05-14T15:35:05;2.53;;;1.23;;
36593;SDS011;22603;47.900;8.146;2023-05-14T15:37:53;1.48;;;1.00;;
36593;SDS011;22603;47.900;8.146;2023-05-14T15:40:41;3.13;;;1.25;;
36593;SDS011;22603;47.900;8.146;2023-05-14T15:43:28;2.25;;;1.15;;
36593;SDS011;22603;47.900;8.146;2023-05-14T15:46:15;3.13;;;1.30;;
36593;SDS011;22603;47.900;8.146;2023-05-14T15:49:02;3.20;;;1.40;;
36593;SDS011;22603;47.900;8.146;2023-05-14T15:51:50;6.72;;;2.33;;
36593;SDS011;22603;47.900;8.146;2023-05-14T15:54:38;2.33;;;1.20;;
36593;SDS011;22603;47.900;8.146;2023-05-14T15:57:25;1.65;;;0.95;;
36593;SDS011;22603;47.900;8.146;2023-05-14T16:00:12;2.35;;;1.23;;
36593;SDS011;22603;47.900;8.146;2023-05-14T16:03:00;6.95;;;1.50;;
36593;SDS011;22603;47.900;8.146;2023-05-14T16:05:47;1.95;;;1.20;;
36593;SDS011;22603;47.900;8.146;2023-05-14T16:08:34;2.15;;;1.10;;
36593;SDS011;22603;47.900;8.146;2023-05-14T16:11:23;2.50;;;1.30;;
36593;SDS011;22603;47.900;8.146;2023-05-14T16:14:10;1.80;;;1.10;;
36593;SDS011;22603;47.900;8.146;2023-05-14T16:16:56;3.83;;;1.52;;
36593;SDS011;22603;47.900;8.146;2023-05-14T16:19:43;3.38;;;1.35;;
36593;SDS011;22603;47.900;8.146;2023-05-14T16:22:30;3.03;;;1.38;;
36593;SDS011;22603;47.900;8.146;2023-05-14T16:25:18;3.22;;;1.40;;
36593;SDS011;22603;47.900;8.146;2023-05-14T16:28:07;3.58;;;1.45;;
36593;SDS011;22603;47.900;8.146;2023-05-14T16:30:54;2.60;;;1.27;;
36593;SDS011;22603;47.900;8.146;2023-05-14T16:33:41;3.75;;;1.60;;
36593;SDS011;22603;47.900;8.146;2023-05-14T16:36:28;1.90;;;1.30;;
36593;SDS011;22603;47.900;8.146;2023-05-14T16:39:15;2.28;;;1.23;;
36593;SDS011;22603;47.900;8.146;2023-05-14T16:42:02;5.72;;;1.48;;
36593;SDS011;22603;47.900;8.146;2023-05-14T16:44:50;4.68;;;1.50;;
36593;SDS011;22603;47.900;8.146;2023-05-14T16:47:38;3.83;;;1.40;;
36593;SDS011;22603;47.900;8.146;2023-05-14T16:50:25;4.15;;;1.67;;